Time;durP1;ratioP1;P1;durP2;ratioP2;P2;SDS_P1;SDS_P2;PMS_P1;PMS_P2;Temp;Humidity;BMP_temperature;BMP_pressure;BME280_temperature;BME280_humidity;BME280_pressure;Samples;Min_cycle;Max_cycle;Signal;HPM_P1;HPM_P2
2023/04/24 00:00:36;;;;;;;2.00;1.20;;;12.30;46.00;;;;;;5092099;28;20405;-75
2023/04/24 00:03:02;;;;;;;3.90;1.57;;;12.40;45.80;;;;;;5091321;28;20374;-75
2023/04/24 00:05:28;;;;;;;1.92;1.30;;;12.50;45.20;;;;;;5092187;28;20382;-76
2023/04/24 00:07:55;;;;;;;2.60;1.50;;;12.30;45.10;;;;;;5092394;28;20880;-76
2023/04/24 00:10:21;;;;;;;4.38;1.40;;;12.30;45.70;;;;;;5074017;28;20383;-76
2023/04/24 00:12:46;;;;;;;2.20;1.70;;;12.30;45.00;;;;;;5091422;28;20562;-76
2023/04/24 00:15:12;;;;;;;2.67;1.60;;;12.20;45.70;;;;;;5092404;28;20378;-76
2023/04/24 00:17:37;;;;;;;2.40;1.50;;;12.10;46.10;;;;;;5092294;28;20458;-75
2023/04/24 00:20:06;;;;;;;3.70;1.90;;;12.00;46.90;;;;;;5091807;28;20471;-75
2023/04/24 00:22:33;;;;;;;2.90;1.70;;;11.80;48.40;;;;;;5091253;28;20894;-76
2023/04/24 00:24:58;;;;;;;3.00;1.70;;;11.70;49.90;;;;;;5091934;28;20509;-76
2023/04/24 00:27:24;;;;;;;2.45;1.70;;;11.50;51.70;;;;;;5091981;28;20374;-76
2023/04/24 00:29:49;;;;;;;2.40;1.95;;;11.40;51.50;;;;;;5091757;28;20941;-74
2023/04/24 00:32:15;;;;;;;3.00;1.85;;;11.20;52.90;;;;;;5090901;28;20457;-76
2023/04/24 00:34:41;;;;;;;2.80;1.90;;;11.10;53.40;;;;;;5091694;28;20375;-77
2023/04/24 00:37:07;;;;;;;2.60;1.83;;;11.10;52.50;;;;;;5091718;28;20408;-75
2023/04/24 00:39:33;;;;;;;2.80;1.90;;;11.10;52.30;;;;;;5091672;28;20402;-76
2023/04/24 00:41:58;;;;;;;3.30;2.03;;;11.10;50.70;;;;;;5090861;28;20410;-76
2023/04/24 00:44:25;;;;;;;2.13;1.90;;;11.20;49.70;;;;;;5091690;28;20374;-77
2023/04/24 00:46:54;;;;;;;4.50;2.00;;;11.30;48.70;;;;;;5091425;28;20390;-77
2023/04/24 00:49:20;;;;;;;2.72;2.00;;;11.30;49.00;;;;;;5091587;28;20382;-76
2023/04/24 00:51:46;;;;;;;2.78;1.85;;;11.40;49.90;;;;;;5074786;28;20460;-75
2023/04/24 00:54:13;;;;;;;6.03;3.30;;;11.40;49.60;;;;;;5094010;28;20389;-76
2023/04/24 00:56:39;;;;;;;2.40;1.80;;;11.40;50.30;;;;;;5091372;28;20441;-76
2023/04/24 00:59:04;;;;;;;2.85;2.38;;;11.50;50.10;;;;;;5092509;28;20382;-77
2023/04/24 01:01:30;;;;;;;2.80;1.70;;;11.60;48.60;;;;;;5092007;28;20378;-76
2023/04/24 01:03:58;;;;;;;2.00;1.70;;;11.60;47.20;;;;;;5073004;28;20388;-75
2023/04/24 01:06:27;;;;;;;4.75;2.10;;;11.60;48.00;;;;;;5091332;28;20691;-76
2023/04/24 01:08:53;;;;;;;3.05;2.55;;;11.50;48.10;;;;;;5091275;28;20415;-76
2023/04/24 01:11:19;;;;;;;5.88;2.85;;;11.60;46.80;;;;;;5091021;28;20382;-75
2023/04/24 01:13:45;;;;;;;4.38;2.70;;;11.50;47.00;;;;;;5091030;28;20850;-75
2023/04/24 01:16:11;;;;;;;4.30;2.40;;;11.40;46.50;;;;;;5090987;28;20382;-76
2023/04/24 01:18:38;;;;;;;3.90;2.50;;;11.30;47.90;;;;;;5090895;28;20863;-76
2023/04/24 01:21:04;;;;;;;5.57;3.13;;;11.30;48.10;;;;;;5090731;28;20473;-75
2023/04/24 01:23:30;;;;;;;5.50;3.35;;;11.20;49.40;;;;;;5090402;28;20373;-75
2023/04/24 01:25:55;;;;;;;7.18;3.80;;;11.00;49.80;;;;;;5090942;28;20942;-75
2023/04/24 01:28:21;;;;;;;6.53;3.80;;;10.80;52.20;;;;;;5091073;28;20461;-75
2023/04/24 01:30:47;;;;;;;7.00;4.25;;;10.70;54.30;;;;;;5090819;28;20385;-76
2023/04/24 01:33:13;;;;;;;13.40;5.60;;;10.60;55.10;;;;;;5090283;28;20827;-75
2023/04/24 01:35:39;;;;;;;10.55;5.97;;;10.50;55.50;;;;;;5090710;28;20401;-75
2023/04/24 01:38:05;;;;;;;10.15;6.03;;;10.40;55.70;;;;;;5090851;28;20855;-75
2023/04/24 01:40:32;;;;;;;9.63;6.60;;;10.30;57.10;;;;;;5090623;28;20416;-75
2023/04/24 01:42:58;;;;;;;11.47;6.60;;;10.20;58.90;;;;;;5091375;28;20789;-75
2023/04/24 01:45:24;;;;;;;11.00;7.20;;;10.10;59.30;;;;;;5091830;28;20393;-75
2023/04/24 01:47:50;;;;;;;13.73;7.85;;;10.00;60.70;;;;;;5073884;28;20439;-75
2023/04/24 01:50:16;;;;;;;14.57;8.05;;;10.00;60.90;;;;;;5091738;28;20792;-75
2023/04/24 01:52:42;;;;;;;12.93;8.10;;;9.90;62.60;;;;;;5091061;28;20386;-76
2023/04/24 01:55:08;;;;;;;12.85;9.32;;;10.00;61.80;;;;;;5091585;28;20382;-75
2023/04/24 01:57:34;;;;;;;12.95;8.80;;;10.00;61.40;;;;;;5090798;28;20730;-75
2023/04/24 02:00:00;;;;;;;14.90;9.30;;;10.10;60.30;;;;;;5090330;28;20405;-75
2023/04/24 02:02:27;;;;;;;17.08;9.00;;;10.20;60.40;;;;;;5089892;28;20734;-75
2023/04/24 02:04:56;;;;;;;14.77;9.20;;;10.30;59.60;;;;;;5090668;28;20386;-76
2023/04/24 02:07:22;;;;;;;15.77;9.88;;;10.30;59.40;;;;;;5090494;28;20385;-76
2023/04/24 02:09:47;;;;;;;16.25;9.98;;;10.40;59.90;;;;;;5090481;28;20378;-76
2023/04/24 02:12:14;;;;;;;16.92;10.30;;;10.40;58.40;;;;;;5089490;28;20727;-76
2023/04/24 02:14:39;;;;;;;15.48;10.20;;;10.40;58.30;;;;;;5090311;28;20389;-76
2023/04/24 02:17:05;;;;;;;16.40;11.53;;;10.50;58.00;;;;;;5090346;28;20389;-76
2023/04/24 02:19:31;;;;;;;18.95;10.55;;;10.50;58.30;;;;;;5090441;28;20402;-75
2023/04/24 02:21:56;;;;;;;19.38;10.45;;;10.50;57.90;;;;;;5090027;28;20382;-75
2023/04/24 02:24:22;;;;;;;17.40;10.95;;;10.50;58.80;;;;;;5090266;28;20374;-75
2023/04/24 02:26:47;;;;;;;18.05;11.32;;;10.40;59.50;;;;;;5090366;28;20739;-76
2023/04/24 02:29:13;;;;;;;20.55;11.80;;;10.40;60.10;;;;;;5090141;28;20397;-75
2023/04/24 02:31:38;;;;;;;15.63;10.90;;;10.40;59.50;;;;;;5089785;28;20465;-75
2023/04/24 02:34:04;;;;;;;14.30;10.20;;;10.40;59.70;;;;;;5090437;28;20386;-75
2023/04/24 02:36:30;;;;;;;17.43;11.77;;;10.50;59.00;;;;;;5093863;28;20382;-75
2023/04/24 02:38:55;;;;;;;19.93;11.83;;;10.60;58.30;;;;;;5093618;28;20719;-74
2023/04/24 02:41:21;;;;;;;18.43;10.97;;;10.60;58.10;;;;;;5093080;28;20432;-76
2023/04/24 02:43:46;;;;;;;22.63;11.80;;;10.70;58.10;;;;;;5093582;28;20792;-76
2023/04/24 02:46:12;;;;;;;19.73;12.10;;;10.70;57.80;;;;;;5093597;28;21072;-76
2023/04/24 02:48:38;;;;;;;17.97;12.00;;;10.70;57.50;;;;;;5093519;28;20378;-76
2023/04/24 02:51:04;;;;;;;18.33;11.70;;;10.70;57.30;;;;;;5092170;28;20382;-77
2023/04/24 02:53:32;;;;;;;21.17;12.50;;;10.80;56.10;;;;;;5092475;28;20433;-75
2023/04/24 02:55:58;;;;;;;19.60;11.00;;;10.80;56.40;;;;;;5093154;28;20405;-75
2023/04/24 02:58:23;;;;;;;16.47;11.67;;;10.80;56.60;;;;;;5092753;28;20385;-75
2023/04/24 03:00:54;;;;;;;23.10;12.60;;;10.80;56.80;;;;;;5092912;28;20409;-74
2023/04/24 03:03:19;;;;;;;18.65;12.02;;;10.80;56.60;;;;;;5092900;28;20422;-76
2023/04/24 03:05:45;;;;;;;22.43;12.50;;;10.80;57.10;;;;;;5092925;28;20483;-76
2023/04/24 03:08:11;;;;;;;23.20;12.50;;;10.80;56.80;;;;;;5076259;28;20511;-73
2023/04/24 03:10:36;;;;;;;23.47;12.57;;;10.80;56.20;;;;;;5093325;28;20394;-76
2023/04/24 03:13:02;;;;;;;23.77;12.80;;;10.80;56.20;;;;;;5093452;28;20941;-75
2023/04/24 03:15:27;;;;;;;18.40;11.70;;;10.80;57.00;;;;;;5102798;28;20400;-73
2023/04/24 03:17:53;;;;;;;19.03;12.80;;;10.80;57.00;;;;;;5091848;28;20390;-75
2023/04/24 03:20:18;;;;;;;20.13;12.07;;;10.90;56.40;;;;;;5095411;28;20433;-75
2023/04/24 03:22:44;;;;;;;23.10;12.73;;;10.80;56.30;;;;;;5092429;28;20386;-75
2023/04/24 03:25:10;;;;;;;20.20;12.25;;;10.90;55.90;;;;;;5094928;28;20381;-75
2023/04/24 03:27:35;;;;;;;22.85;12.25;;;10.90;56.30;;;;;;5099347;28;20389;-75
2023/04/24 03:30:01;;;;;;;20.88;11.93;;;10.90;54.90;;;;;;5094504;28;20451;-75
2023/04/24 03:32:27;;;;;;;20.77;12.38;;;10.90;55.10;;;;;;5091757;28;20394;-75
2023/04/24 03:34:53;;;;;;;22.40;12.30;;;10.90;55.50;;;;;;5092291;28;20394;-76
2023/04/24 03:37:18;;;;;;;22.57;12.30;;;10.80;55.90;;;;;;5092446;28;20374;-76
2023/04/24 03:39:44;;;;;;;20.53;12.13;;;10.90;54.00;;;;;;5092442;28;20459;-76
2023/04/24 03:42:10;;;;;;;18.47;11.93;;;10.90;54.00;;;;;;5091691;28;20777;-76
2023/04/24 03:44:36;;;;;;;17.27;11.13;;;10.90;54.20;;;;;;5102207;28;20378;-76
2023/04/24 03:47:01;;;;;;;21.55;11.15;;;10.90;54.60;;;;;;5105726;28;20374;-76
2023/04/24 03:49:27;;;;;;;27.08;12.30;;;10.90;54.90;;;;;;5105434;28;20531;-76
2023/04/24 03:51:53;;;;;;;19.73;11.10;;;10.90;54.20;;;;;;5095234;28;20422;-75
2023/04/24 03:54:19;;;;;;;19.80;12.25;;;10.90;54.40;;;;;;5092273;28;20378;-74
2023/04/24 03:56:45;;;;;;;18.52;11.00;;;10.90;54.20;;;;;;5092314;28;20392;-75
2023/04/24 03:59:11;;;;;;;25.92;12.40;;;10.90;54.20;;;;;;5093052;28;20427;-76
2023/04/24 04:01:37;;;;;;;20.48;12.38;;;10.90;53.80;;;;;;5091635;28;20454;-74
2023/04/24 04:04:08;;;;;;;22.53;12.10;;;10.90;54.10;;;;;;5091813;28;20370;-74
2023/04/24 04:06:36;;;;;;;19.08;11.73;;;10.90;53.60;;;;;;5092162;28;20370;-75
2023/04/24 04:09:01;;;;;;;17.30;11.05;;;11.00;52.80;;;;;;5091963;28;20832;-75
2023/04/24 04:11:27;;;;;;;22.77;12.52;;;11.00;53.10;;;;;;5091646;28;20386;-75
2023/04/24 04:13:52;;;;;;;20.67;12.35;;;10.90;52.70;;;;;;5091812;28;20455;-75
2023/04/24 04:16:18;;;;;;;22.33;12.40;;;10.90;52.90;;;;;;5091773;28;20425;-75
2023/04/24 04:18:44;;;;;;;20.23;12.30;;;10.90;53.80;;;;;;5090450;28;20382;-75
2023/04/24 04:21:10;;;;;;;22.37;12.10;;;10.90;54.30;;;;;;5091159;28;20402;-75
2023/04/24 04:23:36;;;;;;;19.23;12.13;;;10.90;53.40;;;;;;5091517;28;20427;-76
2023/04/24 04:26:03;;;;;;;21.70;12.10;;;10.90;54.20;;;;;;5091736;28;20385;-75
2023/04/24 04:28:30;;;;;;;19.08;12.00;;;10.80;54.20;;;;;;5091778;28;20385;-75
2023/04/24 04:30:57;;;;;;;19.08;11.60;;;10.90;54.10;;;;;;5091149;28;20780;-76
2023/04/24 04:33:23;;;;;;;17.50;10.77;;;10.80;54.40;;;;;;5090275;28;20386;-76
2023/04/24 04:35:49;;;;;;;20.67;11.50;;;10.90;54.40;;;;;;5091743;28;20754;-76
2023/04/24 04:38:16;;;;;;;19.05;11.27;;;10.80;54.10;;;;;;5091384;28;20382;-76
2023/04/24 04:40:42;;;;;;;20.75;11.27;;;10.80;54.00;;;;;;5091769;28;20420;-76
2023/04/24 04:43:08;;;;;;;19.17;11.80;;;10.70;55.80;;;;;;5091017;28;20829;-77
2023/04/24 04:45:34;;;;;;;18.63;11.20;;;10.70;55.40;;;;;;5091473;28;20386;-76
2023/04/24 04:48:01;;;;;;;18.77;10.90;;;10.80;54.10;;;;;;5091609;28;20378;-76
2023/04/24 04:50:27;;;;;;;15.32;10.32;;;10.80;53.90;;;;;;5091410;28;20386;-77
2023/04/24 04:52:53;;;;;;;19.55;11.05;;;10.80;54.00;;;;;;5090852;28;20878;-77
2023/04/24 04:55:19;;;;;;;19.77;10.90;;;10.80;55.00;;;;;;5091345;28;20839;-77
2023/04/24 04:57:45;;;;;;;22.00;11.35;;;10.80;55.70;;;;;;5091628;28;20386;-77
2023/04/24 05:00:12;;;;;;;19.27;11.10;;;10.70;58.50;;;;;;5091313;28;20424;-76
2023/04/24 05:02:38;;;;;;;18.35;12.18;;;10.60;62.10;;;;;;5090720;28;20526;-77
2023/04/24 05:05:05;;;;;;;18.83;12.18;;;10.60;65.20;;;;;;5091338;28;20374;-76
2023/04/24 05:07:31;;;;;;;19.58;13.07;;;10.50;68.40;;;;;;5091679;28;20407;-77
2023/04/24 05:09:56;;;;;;;23.77;13.80;;;10.40;71.60;;;;;;5092416;28;20476;-76
2023/04/24 05:12:22;;;;;;;17.33;13.07;;;10.20;74.10;;;;;;5090969;28;20405;-77
2023/04/24 05:14:47;;;;;;;19.83;13.23;;;10.30;72.60;;;;;;5092364;28;20405;-76
2023/04/24 05:17:13;;;;;;;21.17;12.30;;;10.20;74.90;;;;;;5091387;28;20438;-76
2023/04/24 05:19:39;;;;;;;20.75;12.27;;;10.30;72.30;;;;;;5091987;28;20480;-76
2023/04/24 05:22:06;;;;;;;19.80;11.13;;;10.30;70.30;;;;;;5090531;28;20386;-75
2023/04/24 05:24:33;;;;;;;13.43;10.48;;;10.40;65.70;;;;;;5091690;28;20385;-76
2023/04/24 05:26:59;;;;;;;16.77;11.25;;;10.40;64.40;;;;;;5091569;28;20381;-76
2023/04/24 05:29:26;;;;;;;15.77;11.25;;;10.40;65.60;;;;;;5094421;28;20409;-75
2023/04/24 05:31:52;;;;;;;17.23;10.95;;;10.40;66.60;;;;;;5093029;28;20775;-76
2023/04/24 05:34:18;;;;;;;16.70;10.40;;;10.40;69.60;;;;;;5102359;28;20378;-77
2023/04/24 05:36:43;;;;;;;15.77;11.30;;;10.40;70.20;;;;;;5103519;28;20840;-76
2023/04/24 05:39:09;;;;;;;16.40;10.90;;;10.30;72.30;;;;;;5095734;28;20382;-77
2023/04/24 05:41:35;;;;;;;13.47;10.00;;;10.30;71.70;;;;;;5107368;28;20406;-76
2023/04/24 05:44:00;;;;;;;15.50;10.67;;;10.20;74.00;;;;;;5110876;28;20380;-76
2023/04/24 05:46:26;;;;;;;18.77;11.63;;;10.20;74.20;;;;;;5107249;28;20441;-76
2023/04/24 05:48:51;;;;;;;16.10;10.20;;;10.30;72.70;;;;;;5092730;28;20430;-77
2023/04/24 05:51:17;;;;;;;14.07;10.13;;;10.30;69.90;;;;;;5094659;28;20739;-75
2023/04/24 05:53:42;;;;;;;17.57;10.23;;;10.30;72.10;;;;;;5103574;28;20385;-75
2023/04/24 05:56:08;;;;;;;16.20;11.03;;;10.30;69.20;;;;;;5105942;28;20392;-75
2023/04/24 05:58:34;;;;;;;15.73;9.60;;;10.40;71.00;;;;;;5104265;28;20468;-76
2023/04/24 06:01:01;;;;;;;16.20;9.27;;;10.40;69.80;;;;;;5093894;28;20765;-76
2023/04/24 06:03:27;;;;;;;12.40;9.43;;;10.40;70.50;;;;;;5096199;28;20393;-77
2023/04/24 06:05:53;;;;;;;16.52;10.05;;;10.40;70.30;;;;;;5097665;28;20413;-76
2023/04/24 06:08:19;;;;;;;18.90;11.10;;;10.40;72.70;;;;;;5098055;28;20407;-78
2023/04/24 06:10:45;;;;;;;15.83;9.80;;;10.50;74.10;;;;;;5100934;28;20416;-76
2023/04/24 06:13:11;;;;;;;12.50;9.13;;;10.60;71.80;;;;;;5078667;28;20400;-76
2023/04/24 06:15:37;;;;;;;18.98;9.75;;;10.50;71.20;;;;;;5095284;28;20846;-77
2023/04/24 06:18:03;;;;;;;14.97;9.47;;;10.70;69.10;;;;;;5095893;28;20425;-76
2023/04/24 06:20:28;;;;;;;14.15;9.80;;;10.60;70.90;;;;;;5096131;28;20901;-76
2023/04/24 06:22:54;;;;;;;12.63;9.88;;;10.60;70.90;;;;;;5094150;28;20475;-76
2023/04/24 06:25:20;;;;;;;12.45;8.80;;;10.60;70.60;;;;;;5096364;28;20378;-76
2023/04/24 06:27:46;;;;;;;17.15;8.75;;;10.60;71.00;;;;;;5095552;28;20374;-77
2023/04/24 06:30:11;;;;;;;11.70;7.80;;;10.70;70.50;;;;;;5096637;28;20438;-77
2023/04/24 06:32:37;;;;;;;10.47;7.70;;;10.70;68.20;;;;;;5097144;28;20412;-77
2023/04/24 06:35:03;;;;;;;10.83;8.03;;;10.70;67.20;;;;;;5098869;28;20382;-76
2023/04/24 06:37:29;;;;;;;11.60;8.55;;;10.60;69.70;;;;;;5098804;28;20382;-75
2023/04/24 06:39:55;;;;;;;11.27;6.87;;;10.50;71.30;;;;;;5094972;28;20934;-76
2023/04/24 06:42:21;;;;;;;9.33;7.20;;;10.40;71.30;;;;;;5093679;28;20443;-75
2023/04/24 06:44:47;;;;;;;9.40;7.10;;;10.40;73.10;;;;;;5093996;28;20382;-75
2023/04/24 06:47:13;;;;;;;10.90;7.20;;;10.60;71.80;;;;;;5094635;28;20544;-76
2023/04/24 06:49:39;;;;;;;9.07;7.17;;;10.50;70.10;;;;;;5094567;28;20374;-75
2023/04/24 06:52:06;;;;;;;9.88;6.50;;;10.50;71.40;;;;;;5093104;28;20378;-75
2023/04/24 06:54:32;;;;;;;11.43;7.00;;;10.40;74.30;;;;;;5094849;28;20382;-74
2023/04/24 06:57:00;;;;;;;11.68;7.47;;;10.40;73.30;;;;;;5093872;28;20889;-75
2023/04/24 06:59:26;;;;;;;13.95;6.97;;;10.40;79.20;;;;;;5093345;28;20382;-76
2023/04/24 07:01:52;;;;;;;8.25;6.40;;;10.20;79.80;;;;;;5093196;28;20382;-75
2023/04/24 07:04:18;;;;;;;12.60;6.77;;;10.20;80.40;;;;;;5093808;28;20883;-77
2023/04/24 07:06:45;;;;;;;9.35;6.95;;;10.30;78.50;;;;;;5093690;28;20374;-76
2023/04/24 07:09:13;;;;;;;11.30;6.50;;;10.40;80.30;;;;;;5094840;28;20382;-76
2023/04/24 07:11:40;;;;;;;9.65;6.35;;;10.60;77.40;;;;;;5093544;28;20385;-76
2023/04/24 07:14:06;;;;;;;7.63;5.90;;;10.70;76.60;;;;;;5093739;28;20386;-76
2023/04/24 07:16:32;;;;;;;8.60;4.70;;;10.70;73.20;;;;;;5094765;28;20382;-75
2023/04/24 07:18:57;;;;;;;8.50;5.30;;;10.80;69.80;;;;;;5096746;28;20432;-76
2023/04/24 07:21:23;;;;;;;9.53;5.10;;;10.80;70.60;;;;;;5092296;28;20402;-76
2023/04/24 07:23:48;;;;;;;9.23;5.83;;;10.60;72.40;;;;;;5093545;28;20378;-76
2023/04/24 07:26:14;;;;;;;9.97;5.70;;;10.50;76.30;;;;;;5093566;28;20374;-76
2023/04/24 07:28:40;;;;;;;6.55;4.70;;;10.40;78.70;;;;;;5091904;28;20382;-76
2023/04/24 07:31:06;;;;;;;4.75;3.80;;;10.40;79.30;;;;;;5092355;28;20419;-76
2023/04/24 07:33:32;;;;;;;5.40;3.17;;;10.30;76.10;;;;;;5092914;28;20971;-76
2023/04/24 07:35:58;;;;;;;3.30;3.00;;;10.20;72.40;;;;;;5092899;28;20374;-75
2023/04/24 07:38:25;;;;;;;2.63;2.00;;;10.00;74.20;;;;;;5092632;28;20443;-76
2023/04/24 07:40:51;;;;;;;3.50;1.70;;;9.90;73.50;;;;;;5092194;28;20757;-75
2023/04/24 07:43:17;;;;;;;3.00;2.17;;;9.70;73.30;;;;;;5095111;28;20408;-77
2023/04/24 07:45:43;;;;;;;2.88;2.28;;;9.60;79.20;;;;;;5094131;28;20378;-75
2023/04/24 07:48:09;;;;;;;4.88;1.48;;;9.50;83.50;;;;;;5091109;28;20382;-77
2023/04/24 07:50:36;;;;;;;4.97;1.20;;;9.40;82.30;;;;;;5092349;28;20416;-76
2023/04/24 07:53:02;;;;;;;2.60;1.10;;;9.30;78.90;;;;;;5091803;28;20902;-76
2023/04/24 07:55:27;;;;;;;1.40;1.30;;;9.20;78.20;;;;;;5092670;28;20457;-76
2023/04/24 07:57:53;;;;;;;1.50;1.20;;;9.10;80.30;;;;;;5092595;28;20720;-76
2023/04/24 08:00:19;;;;;;;4.50;1.20;;;9.20;81.70;;;;;;5092276;28;20528;-75
2023/04/24 08:02:45;;;;;;;2.28;1.35;;;9.10;83.70;;;;;;5091834;28;20912;-76
2023/04/24 08:05:10;;;;;;;1.40;1.20;;;9.10;83.30;;;;;;5091999;28;20378;-75
2023/04/24 08:07:36;;;;;;;2.60;1.60;;;9.20;84.40;;;;;;5092146;28;20874;-76
2023/04/24 08:10:02;;;;;;;1.60;1.30;;;9.30;82.80;;;;;;5092290;28;20460;-76
2023/04/24 08:12:30;;;;;;;2.35;1.30;;;9.20;81.80;;;;;;5094333;28;20473;-77
2023/04/24 08:14:56;;;;;;;3.53;1.40;;;9.20;82.10;;;;;;5108940;28;20378;-76
2023/04/24 08:17:22;;;;;;;3.70;1.83;;;9.20;85.50;;;;;;5102320;28;20432;-76
2023/04/24 08:19:48;;;;;;;4.13;2.00;;;9.30;85.20;;;;;;5091562;28;20812;-76
2023/04/24 08:22:15;;;;;;;4.45;1.80;;;9.30;85.20;;;;;;5091619;28;20418;-76
2023/04/24 08:24:40;;;;;;;2.53;1.80;;;9.30;85.50;;;;;;5092696;28;20378;-77
2023/04/24 08:27:06;;;;;;;2.28;1.75;;;9.30;84.70;;;;;;5094689;28;20400;-77
2023/04/24 08:29:32;;;;;;;2.10;1.90;;;9.30;88.50;;;;;;5093424;28;20888;-74
2023/04/24 08:31:57;;;;;;;2.30;1.77;;;9.40;88.40;;;;;;5089963;28;20374;-76
2023/04/24 08:34:23;;;;;;;2.20;1.80;;;9.40;86.40;;;;;;5092359;28;20372;-76
2023/04/24 08:36:49;;;;;;;2.27;1.60;;;9.50;85.60;;;;;;5092509;28;20423;-77
2023/04/24 08:39:15;;;;;;;3.13;2.00;;;9.60;83.50;;;;;;5091846;28;20512;-76
2023/04/24 08:41:46;;;;;;;2.92;1.80;;;9.60;85.50;;;;;;5091108;28;20608;-75
2023/04/24 08:44:14;;;;;;;4.97;1.83;;;9.70;88.70;;;;;;5092388;28;20593;-76
2023/04/24 08:46:40;;;;;;;2.50;1.70;;;9.70;85.20;;;;;;5097211;28;20397;-75
2023/04/24 08:49:06;;;;;;;2.00;1.70;;;9.80;83.10;;;;;;5108119;28;20735;-75
2023/04/24 08:51:32;;;;;;;1.80;1.70;;;9.90;83.50;;;;;;5110403;28;20412;-76
2023/04/24 08:53:58;;;;;;;2.78;1.70;;;9.90;83.60;;;;;;5110411;28;20401;-75
2023/04/24 08:56:24;;;;;;;1.90;1.80;;;9.90;82.10;;;;;;5112299;28;20751;-74
2023/04/24 08:58:52;;;;;;;2.45;1.88;;;9.80;83.40;;;;;;5112645;28;20393;-75
2023/04/24 09:01:20;;;;;;;3.58;3.28;;;9.70;87.50;;;;;;5107489;28;20458;-75
2023/04/24 09:03:52;;;;;;;7.22;4.18;;;9.60;90.80;;;;;;5091923;28;20489;-76
2023/04/24 09:06:21;;;;;;;6.70;5.17;;;9.50;95.90;;;;;;5092014;28;20423;-75
2023/04/24 09:08:48;;;;;;;7.55;3.80;;;9.50;97.90;;;;;;5091215;28;20378;-76
2023/04/24 09:11:14;;;;;;;4.30;3.90;;;9.40;89.30;;;;;;5090602;28;20469;-75
2023/04/24 09:13:41;;;;;;;6.03;3.77;;;9.30;91.90;;;;;;5093608;22;20478;-73
2023/04/24 09:16:06;;;;;;;4.10;3.70;;;9.40;90.00;;;;;;5072241;28;20368;-75
2023/04/24 09:18:32;;;;;;;5.05;3.85;;;9.40;93.30;;;;;;5073443;28;20387;-72
2023/04/24 09:21:03;;;;;;;7.68;4.60;;;9.40;91.10;;;;;;5070140;28;20741;-73
2023/04/24 09:23:30;;;;;;;11.35;5.80;;;9.40;94.60;;;;;;5073366;28;20444;-73
2023/04/24 09:25:56;;;;;;;6.35;5.00;;;9.40;97.60;;;;;;5071987;28;20743;-72
2023/04/24 09:28:39;;;;;;;7.65;4.90;;;9.40;92.70;;;;;;5052504;28;20792;-72
2023/04/24 09:31:11;;;;;;;8.10;5.55;;;9.40;92.00;;;;;;5070703;28;20434;-72
2023/04/24 09:33:37;;;;;;;7.15;5.50;;;9.30;96.00;;;;;;5072335;28;20402;-73
2023/04/24 09:36:03;;;;;;;7.40;4.80;;;9.40;94.40;;;;;;5071913;28;20390;-72
2023/04/24 09:38:34;;;;;;;8.73;5.32;;;9.30;90.10;;;;;;5070992;28;20387;-71
2023/04/24 09:41:03;;;;;;;9.07;4.55;;;9.40;84.60;;;;;;5070833;28;20403;-73
2023/04/24 09:43:28;;;;;;;9.03;4.60;;;9.40;84.90;;;;;;5053483;28;20384;-72
2023/04/24 09:45:57;;;;;;;9.70;5.30;;;9.50;87.40;;;;;;5078630;28;20383;-73
2023/04/24 09:48:34;;;;;;;10.20;6.13;;;9.50;91.30;;;;;;5076103;28;20383;-71
2023/04/24 09:51:01;;;;;;;13.45;6.47;;;9.60;95.20;;;;;;5056899;28;20387;-72
2023/04/24 09:53:27;;;;;;;11.13;6.88;;;9.50;92.30;;;;;;5075077;28;20467;-72
2023/04/24 09:55:53;;;;;;;12.43;7.28;;;9.60;93.70;;;;;;5075226;28;20745;-72
2023/04/24 09:58:26;;;;;;;14.00;7.00;;;9.70;92.30;;;;;;5079959;28;20380;-71
2023/04/24 10:00:54;;;;;;;13.07;6.60;;;9.80;89.10;;;;;;5084157;28;20402;-72
2023/04/24 10:03:21;;;;;;;15.45;6.40;;;9.90;86.00;;;;;;5070870;28;20395;-72
2023/04/24 10:05:47;;;;;;;14.10;7.20;;;9.90;88.50;;;;;;5092334;28;20431;-73
2023/04/24 10:08:13;;;;;;;15.68;7.07;;;10.00;88.30;;;;;;5086862;28;20395;-72
2023/04/24 10:10:40;;;;;;;13.75;7.10;;;10.10;85.80;;;;;;5082492;28;20384;-71
2023/04/24 10:13:08;;;;;;;14.65;8.10;;;10.20;86.50;;;;;;5081443;28;20406;-71
2023/04/24 10:15:35;;;;;;;12.48;6.97;;;10.30;85.60;;;;;;5082607;28;20383;-70
2023/04/24 10:18:00;;;;;;;18.25;8.10;;;10.20;86.10;;;;;;5082172;28;20406;-72
2023/04/24 10:20:31;;;;;;;11.77;8.00;;;10.10;91.10;;;;;;5081269;28;20399;-71
2023/04/24 10:22:58;;;;;;;12.98;8.30;;;10.00;91.90;;;;;;5083708;28;20463;-71
2023/04/24 10:25:26;;;;;;;12.50;7.63;;;9.90;94.20;;;;;;5082133;28;20380;-71
2023/04/24 10:27:57;;;;;;;16.17;9.18;;;9.90;94.00;;;;;;5081532;28;20379;-72
2023/04/24 10:30:22;;;;;;;21.85;10.10;;;9.80;98.20;;;;;;5083774;28;20372;-72
2023/04/24 10:32:48;;;;;;;18.40;9.77;;;9.80;99.90;;;;;;5081285;28;20850;-72
2023/04/24 10:35:15;;;;;;;15.43;10.17;;;10.00;99.90;;;;;;5064028;28;20391;-72
2023/04/24 10:37:48;;;;;;;18.50;9.20;;;10.10;97.40;;;;;;5080973;28;20450;-71
2023/04/24 10:40:19;;;;;;;13.70;7.90;;;10.20;96.10;;;;;;5082770;28;20403;-72
2023/04/24 10:42:51;;;;;;;15.20;5.80;;;10.00;93.00;;;;;;5077629;28;20391;-72
2023/04/24 10:45:23;;;;;;;12.75;4.63;;;9.70;86.70;;;;;;5076763;28;20470;-72
2023/04/24 10:48:01;;;;;;;13.88;5.13;;;9.20;95.40;;;;;;5079380;28;20792;-71
2023/04/24 10:50:28;;;;;;;16.17;8.07;;;8.80;99.90;;;;;;5074909;28;20448;-71
2023/04/24 10:52:55;;;;;;;24.35;9.88;;;8.80;99.90;;;;;;5076101;28;20414;-72
2023/04/24 10:55:43;;;;;;;23.42;9.43;;;8.90;99.90;;;;;;5074763;28;20414;-71
2023/04/24 10:58:10;;;;;;;23.75;11.25;;;9.00;99.90;;;;;;5073368;28;20386;-71
2023/04/24 11:00:40;;;;;;;22.60;10.95;;;9.20;99.90;;;;;;5073061;28;20483;-71
2023/04/24 11:03:26;;;;;;;25.70;11.13;;;9.30;99.90;;;;;;5073508;28;20391;-72
2023/04/24 11:05:55;;;;;;;22.23;11.20;;;9.40;99.90;;;;;;5073385;28;20392;-72
2023/04/24 11:08:29;;;;;;;22.30;11.20;;;9.70;99.90;;;;;;5073868;28;20403;-72
2023/04/24 11:10:58;;;;;;;18.00;10.10;;;10.20;99.90;;;;;;5072291;28;20387;-72
2023/04/24 11:13:25;;;;;;;18.75;8.90;;;10.70;99.90;;;;;;5073271;28;20414;-71
2023/04/24 11:16:13;;;;;;;21.70;9.05;;;10.70;95.80;;;;;;5073642;28;20919;-72
2023/04/24 11:18:40;;;;;;;20.70;7.18;;;10.70;90.80;;;;;;5073665;28;20461;-72
2023/04/24 11:21:17;;;;;;;17.50;6.50;;;10.50;87.00;;;;;;5077399;28;20556;-71
2023/04/24 11:23:44;;;;;;;17.40;6.63;;;10.20;85.00;;;;;;5087184;28;20399;-72
2023/04/24 11:26:18;;;;;;;13.23;6.00;;;10.10;90.80;;;;;;5087217;28;20447;-72
2023/04/24 11:28:48;;;;;;;15.50;5.93;;;10.00;82.50;;;;;;5086085;28;20461;-72
2023/04/24 11:31:40;;;;;;;18.95;5.50;;;10.10;85.50;;;;;;5086690;28;20395;-72
2023/04/24 11:34:11;;;;;;;16.85;5.38;;;10.20;78.00;;;;;;5084018;28;20383;-73
2023/04/24 11:36:38;;;;;;;18.38;5.60;;;10.60;77.30;;;;;;5083808;28;20691;-73
2023/04/24 11:39:04;;;;;;;13.80;5.15;;;10.80;71.30;;;;;;5080026;28;20380;-73
2023/04/24 11:41:30;;;;;;;15.90;4.60;;;11.20;64.20;;;;;;5077237;28;20404;-72
2023/04/24 11:43:56;;;;;;;12.02;4.90;;;11.40;61.30;;;;;;5076533;28;20384;-72
2023/04/24 11:46:22;;;;;;;13.13;5.00;;;11.60;62.80;;;;;;5076833;28;20736;-71
2023/04/24 11:48:47;;;;;;;14.13;4.82;;;12.10;55.40;;;;;;5078684;28;20391;-72
2023/04/24 11:51:14;;;;;;;10.90;4.75;;;12.40;50.60;;;;;;5078341;28;20388;-71
2023/04/24 11:53:40;;;;;;;15.50;5.45;;;12.30;51.90;;;;;;5084795;28;20379;-72
2023/04/24 11:56:06;;;;;;;18.25;5.30;;;12.10;53.30;;;;;;5086951;28;20388;-72
2023/04/24 11:58:39;;;;;;;14.70;5.20;;;11.90;55.30;;;;;;5064213;28;20388;-72
2023/04/24 12:01:05;;;;;;;14.30;5.85;;;11.60;55.60;;;;;;5063764;28;20446;-73
2023/04/24 12:03:31;;;;;;;19.17;6.20;;;11.30;58.10;;;;;;5081698;28;20388;-72
2023/04/24 12:06:10;;;;;;;19.13;5.93;;;11.20;65.40;;;;;;5083128;28;20376;-72
2023/04/24 12:08:36;;;;;;;11.02;5.10;;;11.00;64.60;;;;;;5080309;28;20384;-73
2023/04/24 12:11:03;;;;;;;12.25;4.05;;;11.00;57.20;;;;;;5085853;28;20391;-73
2023/04/24 12:13:29;;;;;;;12.63;5.00;;;11.00;56.10;;;;;;5085492;28;20400;-73
2023/04/24 12:15:56;;;;;;;11.35;4.78;;;11.20;55.80;;;;;;5091093;28;20402;-72
2023/04/24 12:18:25;;;;;;;12.20;4.50;;;11.70;49.80;;;;;;5088350;28;20451;-72
2023/04/24 12:20:51;;;;;;;12.35;4.68;;;12.10;47.50;;;;;;5071491;28;20395;-71
2023/04/24 12:23:32;;;;;;;11.98;4.30;;;12.20;40.60;;;;;;5085970;28;20411;-72
2023/04/24 12:26:01;;;;;;;15.93;3.90;;;12.00;40.90;;;;;;5087380;28;20438;-72
2023/04/24 12:28:35;;;;;;;17.00;3.20;;;11.80;40.90;;;;;;5087926;28;20380;-73
2023/04/24 12:31:00;;;;;;;9.20;3.70;;;11.70;43.90;;;;;;5089531;28;20386;-72
2023/04/24 12:33:26;;;;;;;10.70;4.00;;;11.80;41.40;;;;;;5087630;28;20480;-72
2023/04/24 12:35:55;;;;;;;12.88;3.22;;;12.00;37.60;;;;;;5076995;28;20420;-73
2023/04/24 12:38:26;;;;;;;10.02;3.35;;;12.30;36.00;;;;;;5076634;28;20379;-75